Time;durP1;ratioP1;P1;durP2;ratioP2;P2;SDS_P1;SDS_P2;PMS_P1;PMS_P2;Temp;Humidity;BMP_temperature;BMP_pressure;BME280_temperature;BME280_humidity;BME280_pressure;Samples;Min_cycle;Max_cycle;Signal;HPM_P1;HPM_P2
2023/03/23 00:02:04;;;;;;;1.60;0.32;;;;;;;;;;5087311;28;20202;-59
2023/03/23 00:04:31;;;;;;;0.30;0.30;;;;;;;;;;5089342;28;20258;-59
2023/03/23 00:07:00;;;;;;;0.90;0.32;;;;;;;;;;5108703;28;20267;-59
2023/03/23 00:09:29;;;;;;;0.98;0.30;;;;;;;;;;5092443;28;20210;-59
2023/03/23 00:12:04;;;;;;;0.50;0.30;;;;;;;;;;5101946;28;20205;-59
2023/03/23 00:14:40;;;;;;;0.40;0.32;;;;;;;;;;5088804;28;20827;-58
2023/03/23 00:17:09;;;;;;;0.80;0.57;;;;;;;;;;5087610;28;20556;-58
2023/03/23 00:19:44;;;;;;;0.30;0.30;;;;;;;;;;5101017;28;20212;-59
2023/03/23 00:22:11;;;;;;;0.38;0.38;;;;;;;;;;5107807;28;20241;-58
2023/03/23 00:24:40;;;;;;;0.30;0.30;;;;;;;;;;5090280;28;20230;-58
2023/03/23 00:27:08;;;;;;;0.30;0.30;;;;;;;;;;5087176;28;20202;-59
2023/03/23 00:29:35;;;;;;;1.15;0.40;;;;;;;;;;5089891;28;20217;-59
2023/03/23 00:32:02;;;;;;;0.30;0.30;;;;;;;;;;5087197;28;20287;-58
2023/03/23 00:34:32;;;;;;;1.05;0.40;;;;;;;;;;5087606;28;20202;-58
2023/03/23 00:36:59;;;;;;;0.50;0.50;;;;;;;;;;5098022;28;20285;-58
2023/03/23 00:39:44;;;;;;;0.30;0.30;;;;;;;;;;5088454;28;20672;-58
2023/03/23 00:42:16;;;;;;;0.30;0.30;;;;;;;;;;5089939;28;20318;-58
2023/03/23 00:44:44;;;;;;;0.30;0.30;;;;;;;;;;5093405;28;20226;-59
2023/03/23 00:47:12;;;;;;;0.30;0.30;;;;;;;;;;5104597;28;20635;-58
2023/03/23 00:49:40;;;;;;;2.33;0.40;;;;;;;;;;5105840;28;20246;-58
2023/03/23 00:52:08;;;;;;;1.75;0.30;;;;;;;;;;5089670;28;20206;-58
2023/03/23 00:54:37;;;;;;;0.30;0.30;;;;;;;;;;5107101;28;20648;-58
2023/03/23 00:57:04;;;;;;;0.87;0.30;;;;;;;;;;5105071;28;20197;-58
2023/03/23 00:59:33;;;;;;;0.30;0.30;;;;;;;;;;5086299;28;20260;-58
2023/03/23 01:02:00;;;;;;;0.47;0.47;;;;;;;;;;5087331;28;20195;-58
2023/03/23 01:04:28;;;;;;;0.63;0.40;;;;;;;;;;5084010;28;20217;-58
2023/03/23 01:06:56;;;;;;;0.30;0.30;;;;;;;;;;5091598;28;20295;-58
2023/03/23 01:09:23;;;;;;;0.43;0.43;;;;;;;;;;5086889;28;20760;-58
2023/03/23 01:11:51;;;;;;;0.30;0.30;;;;;;;;;;5090869;28;20202;-58
2023/03/23 01:14:19;;;;;;;0.35;0.35;;;;;;;;;;5089073;28;20206;-58
2023/03/23 01:16:48;;;;;;;0.30;0.30;;;;;;;;;;5103065;28;20826;-59
2023/03/23 01:19:15;;;;;;;0.20;0.20;;;;;;;;;;5094115;28;20276;-58
2023/03/23 01:21:42;;;;;;;0.20;0.20;;;;;;;;;;5089625;28;20329;-59
2023/03/23 01:24:10;;;;;;;3.97;0.30;;;;;;;;;;5085560;28;20680;-59
2023/03/23 01:26:37;;;;;;;0.40;0.40;;;;;;;;;;5083872;28;20198;-58
2023/03/23 01:29:04;;;;;;;0.20;0.20;;;;;;;;;;5082039;28;20203;-61
2023/03/23 01:31:31;;;;;;;0.17;0.17;;;;;;;;;;5089302;28;20207;-59
2023/03/23 01:34:00;;;;;;;1.03;0.20;;;;;;;;;;5082701;28;20665;-59
2023/03/23 01:36:32;;;;;;;0.10;0.10;;;;;;;;;;5085587;28;20202;-58
2023/03/23 01:39:00;;;;;;;0.22;0.22;;;;;;;;;;5085178;28;20265;-58
2023/03/23 01:41:28;;;;;;;0.15;0.15;;;;;;;;;;5084543;28;20202;-59
2023/03/23 01:43:57;;;;;;;0.30;0.30;;;;;;;;;;5087555;28;20229;-59
2023/03/23 01:46:24;;;;;;;0.20;0.20;;;;;;;;;;5088338;28;20220;-59
2023/03/23 01:48:52;;;;;;;0.40;0.40;;;;;;;;;;5088935;28;20256;-60
2023/03/23 01:51:21;;;;;;;0.20;0.20;;;;;;;;;;5092472;27;20972;-60
2023/03/23 01:53:50;;;;;;;0.22;0.22;;;;;;;;;;5092868;28;20229;-60
2023/03/23 01:56:24;;;;;;;0.90;0.20;;;;;;;;;;5087559;28;20213;-59
2023/03/23 01:58:52;;;;;;;0.70;0.40;;;;;;;;;;5092639;28;20312;-60
2023/03/23 02:01:21;;;;;;;0.98;0.28;;;;;;;;;;5089334;28;20715;-59
2023/03/23 02:03:48;;;;;;;0.20;0.20;;;;;;;;;;5081647;28;20225;-60
2023/03/23 02:06:16;;;;;;;0.30;0.30;;;;;;;;;;5083486;28;20661;-60
2023/03/23 02:08:45;;;;;;;0.30;0.30;;;;;;;;;;5090510;28;20248;-60
2023/03/23 02:11:16;;;;;;;0.45;0.22;;;;;;;;;;5084447;28;20206;-59
2023/03/23 02:13:43;;;;;;;0.20;0.20;;;;;;;;;;5088349;28;20289;-59
2023/03/23 02:16:13;;;;;;;0.60;0.20;;;;;;;;;;5092105;28;20211;-60
2023/03/23 02:18:44;;;;;;;0.20;0.20;;;;;;;;;;5090002;28;20214;-61
2023/03/23 02:21:29;;;;;;;0.35;0.35;;;;;;;;;;5087120;28;20582;-60
2023/03/23 02:24:05;;;;;;;1.20;0.30;;;;;;;;;;5084224;28;20271;-61
2023/03/23 02:26:40;;;;;;;0.50;0.50;;;;;;;;;;5088144;28;20209;-60
2023/03/23 02:29:39;;;;;;;0.30;0.30;;;;;;;;;;5089187;28;20218;-58
2023/03/23 02:32:12;;;;;;;0.30;0.30;;;;;;;;;;5086652;28;20752;-58
2023/03/23 02:34:43;;;;;;;0.30;0.30;;;;;;;;;;5086184;28;20294;-59
2023/03/23 02:37:11;;;;;;;0.30;0.30;;;;;;;;;;5089431;28;20210;-58
2023/03/23 02:39:42;;;;;;;0.35;0.35;;;;;;;;;;5086342;28;20210;-59
2023/03/23 02:42:10;;;;;;;0.77;0.40;;;;;;;;;;5087162;28;20865;-59
2023/03/23 02:44:39;;;;;;;0.40;0.30;;;;;;;;;;5086943;28;20317;-59
2023/03/23 02:47:08;;;;;;;0.32;0.32;;;;;;;;;;5085241;28;20198;-58
2023/03/23 02:49:37;;;;;;;0.30;0.30;;;;;;;;;;5087303;28;20648;-58
2023/03/23 02:52:08;;;;;;;0.33;0.33;;;;;;;;;;5089127;28;20248;-59
2023/03/23 02:54:36;;;;;;;0.22;0.22;;;;;;;;;;5088630;28;20194;-59
2023/03/23 02:57:03;;;;;;;0.30;0.30;;;;;;;;;;5093944;28;20202;-59
2023/03/23 02:59:32;;;;;;;0.30;0.30;;;;;;;;;;5090324;28;20203;-59
2023/03/23 03:02:01;;;;;;;0.45;0.45;;;;;;;;;;5090872;28;20284;-59
2023/03/23 03:04:30;;;;;;;0.45;0.43;;;;;;;;;;5104746;28;20313;-60
2023/03/23 03:07:08;;;;;;;0.40;0.40;;;;;;;;;;5090459;28;20206;-58
2023/03/23 03:09:42;;;;;;;0.73;0.70;;;;;;;;;;5095922;28;20313;-59
2023/03/23 03:12:12;;;;;;;0.32;0.32;;;;;;;;;;5093501;28;20279;-59
2023/03/23 03:14:42;;;;;;;2.58;0.50;;;;;;;;;;5094075;28;20270;-59
2023/03/23 03:17:12;;;;;;;2.97;0.50;;;;;;;;;;5100181;28;20210;-58
2023/03/23 03:19:40;;;;;;;0.40;0.40;;;;;;;;;;5092997;28;20198;-59
2023/03/23 03:22:09;;;;;;;0.50;0.50;;;;;;;;;;5088906;28;20295;-60
2023/03/23 03:24:37;;;;;;;0.40;0.40;;;;;;;;;;5090327;28;20250;-59
2023/03/23 03:27:07;;;;;;;0.43;0.43;;;;;;;;;;5091291;28;20743;-59
2023/03/23 03:29:36;;;;;;;0.32;0.32;;;;;;;;;;5089107;28;20301;-58
2023/03/23 03:32:05;;;;;;;0.53;0.53;;;;;;;;;;5089022;28;20207;-59
2023/03/23 03:34:32;;;;;;;0.60;0.53;;;;;;;;;;5091498;28;20286;-59
2023/03/23 03:37:00;;;;;;;0.60;0.60;;;;;;;;;;5089114;28;20198;-60
2023/03/23 03:39:27;;;;;;;0.43;0.43;;;;;;;;;;5074647;28;20201;-59
2023/03/23 03:41:55;;;;;;;0.73;0.50;;;;;;;;;;5094347;28;20644;-59
2023/03/23 03:44:23;;;;;;;0.40;0.40;;;;;;;;;;5095386;28;20770;-59
2023/03/23 03:46:50;;;;;;;0.40;0.40;;;;;;;;;;5096522;28;20209;-59
2023/03/23 03:49:17;;;;;;;1.40;0.60;;;;;;;;;;5101471;28;20205;-58
2023/03/23 03:51:44;;;;;;;1.03;0.67;;;;;;;;;;5094995;28;20256;-58
2023/03/23 03:54:11;;;;;;;0.50;0.50;;;;;;;;;;5090513;28;20212;-59
2023/03/23 03:56:40;;;;;;;0.47;0.40;;;;;;;;;;5088552;28;20221;-58
2023/03/23 03:59:07;;;;;;;0.60;0.60;;;;;;;;;;5089385;28;20677;-59
2023/03/23 04:01:36;;;;;;;3.07;0.70;;;;;;;;;;5088469;28;20224;-58
2023/03/23 04:04:04;;;;;;;1.13;0.40;;;;;;;;;;5088628;28;20199;-57
2023/03/23 04:06:32;;;;;;;0.40;0.40;;;;;;;;;;5087995;28;20261;-59
2023/03/23 04:09:01;;;;;;;0.50;0.50;;;;;;;;;;5097396;28;20204;-58
2023/03/23 04:11:32;;;;;;;1.97;0.50;;;;;;;;;;5108703;28;20242;-58
2023/03/23 04:13:59;;;;;;;0.30;0.30;;;;;;;;;;5096033;28;20802;-58
2023/03/23 04:16:29;;;;;;;0.47;0.47;;;;;;;;;;5088239;28;20214;-58
2023/03/23 04:18:58;;;;;;;0.73;0.73;;;;;;;;;;5088818;28;20210;-59
2023/03/23 04:21:28;;;;;;;0.57;0.57;;;;;;;;;;5092330;28;20279;-59
2023/03/23 04:23:58;;;;;;;0.50;0.50;;;;;;;;;;5096871;28;20668;-58
2023/03/23 04:26:25;;;;;;;0.63;0.63;;;;;;;;;;5089445;28;20226;-61
2023/03/23 04:28:52;;;;;;;0.67;0.50;;;;;;;;;;5102961;28;20705;-59
2023/03/23 04:31:19;;;;;;;0.50;0.50;;;;;;;;;;5108263;28;20263;-58
2023/03/23 04:33:46;;;;;;;2.00;0.50;;;;;;;;;;5099206;28;20645;-58
2023/03/23 04:36:16;;;;;;;0.47;0.47;;;;;;;;;;5087644;28;20611;-58
2023/03/23 04:38:43;;;;;;;0.30;0.30;;;;;;;;;;5088883;28;20206;-59
2023/03/23 04:41:10;;;;;;;0.53;0.53;;;;;;;;;;5097481;28;20209;-58
2023/03/23 04:43:41;;;;;;;0.50;0.50;;;;;;;;;;5090982;28;20202;-58
2023/03/23 04:46:09;;;;;;;0.87;0.70;;;;;;;;;;5085154;28;20223;-61
2023/03/23 04:48:38;;;;;;;0.40;0.40;;;;;;;;;;5092273;28;20263;-58
2023/03/23 04:51:06;;;;;;;0.67;0.60;;;;;;;;;;5092481;28;20643;-58
2023/03/23 04:53:35;;;;;;;1.60;0.73;;;;;;;;;;5075031;28;20193;-58
2023/03/23 04:56:02;;;;;;;0.40;0.40;;;;;;;;;;5086986;28;20256;-58
2023/03/23 04:58:33;;;;;;;0.37;0.37;;;;;;;;;;5090078;28;20290;-58
2023/03/23 05:01:00;;;;;;;0.40;0.40;;;;;;;;;;5095217;28;20829;-58
2023/03/23 05:03:27;;;;;;;0.50;0.50;;;;;;;;;;5096353;28;20212;-59
2023/03/23 05:05:55;;;;;;;0.50;0.50;;;;;;;;;;5099426;28;20244;-59
2023/03/23 05:08:22;;;;;;;0.40;0.40;;;;;;;;;;5099253;28;20212;-59
2023/03/23 05:10:55;;;;;;;1.30;0.50;;;;;;;;;;5106089;28;20209;-59
2023/03/23 05:13:22;;;;;;;0.50;0.50;;;;;;;;;;5094668;28;20209;-59
2023/03/23 05:15:49;;;;;;;0.47;0.47;;;;;;;;;;5087717;28;20252;-59
2023/03/23 05:18:16;;;;;;;2.00;0.53;;;;;;;;;;5097909;28;20221;-61
2023/03/23 05:20:46;;;;;;;0.50;0.50;;;;;;;;;;5093961;28;20259;-58
2023/03/23 05:23:14;;;;;;;0.40;0.40;;;;;;;;;;5100359;28;20309;-59
2023/03/23 05:25:41;;;;;;;0.50;0.50;;;;;;;;;;5099484;28;20222;-58
2023/03/23 05:28:10;;;;;;;0.87;0.80;;;;;;;;;;5099148;28;20220;-59
2023/03/23 05:30:38;;;;;;;1.02;0.70;;;;;;;;;;5103458;28;20205;-59
2023/03/23 05:33:06;;;;;;;0.63;0.63;;;;;;;;;;5098059;28;20197;-59
2023/03/23 05:35:33;;;;;;;2.03;0.50;;;;;;;;;;5094008;28;20194;-59
2023/03/23 05:38:01;;;;;;;0.95;0.40;;;;;;;;;;5091422;28;20581;-59
2023/03/23 05:40:29;;;;;;;0.60;0.60;;;;;;;;;;5103966;28;20668;-59
2023/03/23 05:42:58;;;;;;;0.63;0.63;;;;;;;;;;5091053;28;20309;-59
2023/03/23 05:45:28;;;;;;;0.93;0.53;;;;;;;;;;5091438;28;20237;-59
2023/03/23 05:47:56;;;;;;;0.52;0.52;;;;;;;;;;5091136;28;20210;-59
2023/03/23 05:50:23;;;;;;;0.63;0.40;;;;;;;;;;5092931;28;20207;-58
2023/03/23 05:52:51;;;;;;;0.60;0.57;;;;;;;;;;5111267;28;20270;-58
2023/03/23 05:55:18;;;;;;;0.55;0.55;;;;;;;;;;5094866;28;20195;-59
2023/03/23 05:57:45;;;;;;;2.13;0.53;;;;;;;;;;5099214;28;20210;-59
2023/03/23 06:00:19;;;;;;;0.60;0.60;;;;;;;;;;5099671;28;20755;-59
2023/03/23 06:02:48;;;;;;;0.85;0.65;;;;;;;;;;5077361;28;20660;-60
2023/03/23 06:05:15;;;;;;;0.70;0.70;;;;;;;;;;5087839;28;20226;-60
2023/03/23 06:07:43;;;;;;;0.50;0.50;;;;;;;;;;5110505;28;20201;-60
2023/03/23 06:10:10;;;;;;;0.40;0.40;;;;;;;;;;5101593;28;20229;-60
2023/03/23 06:12:38;;;;;;;0.50;0.50;;;;;;;;;;5104409;28;20293;-60
2023/03/23 06:15:06;;;;;;;0.50;0.50;;;;;;;;;;5092503;28;20294;-59
2023/03/23 06:17:33;;;;;;;0.50;0.50;;;;;;;;;;5089894;28;20213;-60
2023/03/23 06:20:04;;;;;;;0.40;0.40;;;;;;;;;;5090294;28;20293;-60
2023/03/23 06:22:31;;;;;;;0.47;0.47;;;;;;;;;;5090455;28;20334;-60
2023/03/23 06:24:58;;;;;;;0.60;0.60;;;;;;;;;;5090285;28;20297;-60
2023/03/23 06:27:26;;;;;;;0.60;0.60;;;;;;;;;;5094139;28;20585;-61
2023/03/23 06:29:53;;;;;;;0.57;0.57;;;;;;;;;;5089643;28;20310;-60
2023/03/23 06:32:21;;;;;;;0.93;0.90;;;;;;;;;;5074860;28;20213;-61
2023/03/23 06:34:48;;;;;;;1.00;1.00;;;;;;;;;;5073537;28;20198;-60
2023/03/23 06:37:16;;;;;;;0.90;0.90;;;;;;;;;;5090582;28;20675;-60
2023/03/23 06:39:43;;;;;;;0.80;0.80;;;;;;;;;;5090238;28;20805;-60
2023/03/23 06:42:12;;;;;;;0.77;0.50;;;;;;;;;;5090403;28;20702;-60
2023/03/23 06:44:39;;;;;;;0.60;0.60;;;;;;;;;;5089921;28;20237;-60
2023/03/23 06:47:07;;;;;;;0.60;0.60;;;;;;;;;;5089704;28;20689;-59
2023/03/23 06:49:34;;;;;;;0.50;0.50;;;;;;;;;;5097444;28;20202;-60
2023/03/23 06:52:03;;;;;;;0.60;0.60;;;;;;;;;;5089350;28;20202;-59
2023/03/23 06:54:31;;;;;;;0.50;0.50;;;;;;;;;;5089683;28;20211;-59
2023/03/23 06:56:58;;;;;;;0.50;0.50;;;;;;;;;;5089156;28;20224;-59
2023/03/23 06:59:26;;;;;;;0.50;0.50;;;;;;;;;;5089419;28;20275;-59
2023/03/23 07:01:53;;;;;;;0.40;0.40;;;;;;;;;;5089373;28;20636;-59
2023/03/23 07:04:20;;;;;;;2.23;0.57;;;;;;;;;;5089472;28;20310;-61
2023/03/23 07:06:48;;;;;;;0.52;0.52;;;;;;;;;;5089556;28;20230;-59
2023/03/23 07:09:15;;;;;;;1.40;0.50;;;;;;;;;;5089463;28;20202;-58
2023/03/23 07:11:43;;;;;;;1.23;0.60;;;;;;;;;;5089133;28;20206;-58
2023/03/23 07:14:11;;;;;;;0.73;0.50;;;;;;;;;;5089128;28;20246;-58
2023/03/23 07:16:38;;;;;;;2.50;0.63;;;;;;;;;;5089057;28;20301;-60
2023/03/23 07:19:05;;;;;;;0.50;0.50;;;;;;;;;;5089157;28;20206;-60
2023/03/23 07:21:32;;;;;;;0.50;0.50;;;;;;;;;;5088842;28;20230;-60
2023/03/23 07:23:59;;;;;;;0.53;0.53;;;;;;;;;;5088746;28;20566;-60
2023/03/23 07:26:26;;;;;;;0.50;0.50;;;;;;;;;;5084766;28;20260;-60
2023/03/23 07:28:54;;;;;;;1.63;0.50;;;;;;;;;;5071251;28;20211;-60
2023/03/23 07:31:21;;;;;;;1.43;0.50;;;;;;;;;;5090339;28;20646;-60
2023/03/23 07:33:49;;;;;;;0.53;0.53;;;;;;;;;;5089161;28;20195;-60
2023/03/23 07:36:16;;;;;;;0.83;0.73;;;;;;;;;;5089689;28;20202;-60
2023/03/23 07:38:43;;;;;;;0.50;0.50;;;;;;;;;;5099948;28;20248;-60
2023/03/23 07:41:10;;;;;;;0.60;0.60;;;;;;;;;;5088359;28;20299;-60
2023/03/23 07:43:37;;;;;;;0.57;0.57;;;;;;;;;;5088543;28;20240;-60
2023/03/23 07:46:06;;;;;;;0.87;0.50;;;;;;;;;;5090588;28;20226;-60
2023/03/23 07:48:33;;;;;;;0.40;0.40;;;;;;;;;;5094226;28;20194;-60
2023/03/23 07:51:00;;;;;;;0.40;0.40;;;;;;;;;;5088737;28;20207;-60
2023/03/23 07:53:27;;;;;;;0.40;0.40;;;;;;;;;;5096544;28;20205;-59
2023/03/23 07:55:54;;;;;;;0.43;0.43;;;;;;;;;;5096997;28;20202;-59
2023/03/23 07:58:22;;;;;;;0.50;0.50;;;;;;;;;;5102201;28;20216;-60
2023/03/23 08:00:49;;;;;;;1.27;0.50;;;;;;;;;;5092321;28;20202;-59
2023/03/23 08:03:18;;;;;;;1.33;0.70;;;;;;;;;;5104366;28;20239;-60
2023/03/23 08:05:45;;;;;;;0.37;0.37;;;;;;;;;;5097230;28;20213;-59
2023/03/23 08:08:12;;;;;;;0.50;0.50;;;;;;;;;;5096106;28;20220;-59
2023/03/23 08:10:39;;;;;;;0.97;0.87;;;;;;;;;;5093450;28;20268;-59
2023/03/23 08:13:06;;;;;;;1.43;0.50;;;;;;;;;;5095256;28;20201;-59
2023/03/23 08:15:36;;;;;;;0.50;0.50;;;;;;;;;;5088323;28;20206;-59
2023/03/23 08:18:04;;;;;;;0.53;0.53;;;;;;;;;;5089339;28;20209;-59
2023/03/23 08:20:33;;;;;;;0.50;0.50;;;;;;;;;;5087863;28;20261;-59
2023/03/23 08:23:02;;;;;;;0.57;0.57;;;;;;;;;;5079757;28;20772;-59
2023/03/23 08:25:31;;;;;;;0.40;0.40;;;;;;;;;;5089094;28;20282;-59
2023/03/23 08:27:58;;;;;;;0.73;0.50;;;;;;;;;;5085852;28;20672;-59
2023/03/23 08:30:25;;;;;;;0.60;0.60;;;;;;;;;;5101684;28;20262;-59
2023/03/23 08:32:53;;;;;;;0.73;0.73;;;;;;;;;;5103275;28;20545;-60
2023/03/23 08:35:21;;;;;;;0.60;0.60;;;;;;;;;;5094104;28;20797;-59
2023/03/23 08:37:50;;;;;;;0.80;0.80;;;;;;;;;;5086976;28;20568;-60
2023/03/23 08:40:19;;;;;;;0.67;0.63;;;;;;;;;;5097065;28;20233;-60
2023/03/23 08:42:47;;;;;;;0.40;0.40;;;;;;;;;;5087769;28;20210;-65
2023/03/23 08:45:16;;;;;;;0.50;0.50;;;;;;;;;;5084933;28;20202;-64
2023/03/23 08:47:44;;;;;;;0.70;0.70;;;;;;;;;;5107245;28;20221;-63
2023/03/23 08:50:12;;;;;;;0.70;0.70;;;;;;;;;;5097229;28;20296;-60
2023/03/23 08:52:39;;;;;;;0.60;0.60;;;;;;;;;;5088166;28;20211;-61
2023/03/23 08:55:09;;;;;;;0.87;0.70;;;;;;;;;;5092124;28;20216;-60
2023/03/23 08:57:37;;;;;;;0.50;0.50;;;;;;;;;;5093142;28;20321;-60
2023/03/23 09:00:13;;;;;;;0.60;0.60;;;;;;;;;;5092011;28;20202;-60
2023/03/23 09:02:40;;;;;;;0.70;0.70;;;;;;;;;;5111379;28;20209;-60
2023/03/23 09:05:09;;;;;;;0.43;0.43;;;;;;;;;;5093774;28;20318;-61
2023/03/23 09:07:36;;;;;;;0.60;0.60;;;;;;;;;;5102141;28;20291;-62
2023/03/23 09:10:03;;;;;;;1.30;0.68;;;;;;;;;;5104000;28;20270;-60
2023/03/23 09:12:32;;;;;;;1.43;0.70;;;;;;;;;;5091585;28;20214;-59
2023/03/23 09:14:59;;;;;;;2.67;0.60;;;;;;;;;;5103867;28;20212;-65
2023/03/23 09:17:26;;;;;;;0.80;0.60;;;;;;;;;;5112011;28;20209;-60
2023/03/23 09:19:54;;;;;;;1.55;0.60;;;;;;;;;;5100065;28;20202;-60
2023/03/23 09:22:23;;;;;;;0.33;0.33;;;;;;;;;;5091130;28;20832;-60
2023/03/23 09:24:51;;;;;;;0.50;0.50;;;;;;;;;;5101294;28;20210;-59
2023/03/23 09:27:19;;;;;;;0.82;0.82;;;;;;;;;;5110208;28;20309;-60
2023/03/23 09:29:48;;;;;;;4.50;0.43;;;;;;;;;;5108555;28;20197;-60
2023/03/23 09:32:15;;;;;;;0.60;0.60;;;;;;;;;;5111593;28;20228;-60
2023/03/23 09:34:42;;;;;;;0.60;0.60;;;;;;;;;;5110552;28;20211;-60
2023/03/23 09:37:11;;;;;;;0.45;0.45;;;;;;;;;;5111895;28;20229;-67
2023/03/23 09:39:38;;;;;;;0.40;0.40;;;;;;;;;;5096677;28;20259;-60
2023/03/23 09:42:13;;;;;;;0.50;0.50;;;;;;;;;;5091051;28;20207;-60
2023/03/23 09:44:47;;;;;;;0.50;0.50;;;;;;;;;;5091607;28;20213;-59
2023/03/23 09:47:19;;;;;;;0.52;0.52;;;;;;;;;;5091166;28;20748;-59
2023/03/23 09:49:51;;;;;;;0.73;0.73;;;;;;;;;;5106098;28;20228;-60
2023/03/23 09:52:19;;;;;;;0.50;0.50;;;;;;;;;;5096231;28;20263;-61
2023/03/23 09:54:48;;;;;;;0.82;0.82;;;;;;;;;;5091085;28;20220;-61
2023/03/23 09:57:17;;;;;;;1.23;0.60;;;;;;;;;;5104313;28;20236;-60
2023/03/23 09:59:48;;;;;;;0.75;0.75;;;;;;;;;;5095466;28;20313;-59
2023/03/23 10:02:18;;;;;;;0.40;0.40;;;;;;;;;;5086654;28;20202;-73
2023/03/23 10:04:46;;;;;;;1.48;0.40;;;;;;;;;;5085363;28;20232;-60
2023/03/23 10:07:15;;;;;;;0.60;0.60;;;;;;;;;;5085367;28;20219;-61
2023/03/23 10:09:43;;;;;;;0.40;0.40;;;;;;;;;;5089435;28;20214;-61
2023/03/23 10:12:17;;;;;;;0.40;0.40;;;;;;;;;;5085881;28;20214;-61
2023/03/23 10:14:53;;;;;;;0.40;0.40;;;;;;;;;;5079496;28;20263;-60
2023/03/23 10:17:24;;;;;;;0.40;0.40;;;;;;;;;;5083376;28;20736;-60
2023/03/23 10:19:55;;;;;;;0.73;0.40;;;;;;;;;;5083714;28;20701;-61
2023/03/23 10:22:25;;;;;;;0.40;0.40;;;;;;;;;;5088046;28;20241;-61
2023/03/23 10:24:53;;;;;;;0.60;0.60;;;;;;;;;;5089084;28;20271;-61
2023/03/23 10:27:22;;;;;;;0.60;0.60;;;;;;;;;;5087348;28;20691;-61
2023/03/23 10:29:53;;;;;;;0.50;0.50;;;;;;;;;;5087258;28;20688;-61
2023/03/23 10:32:22;;;;;;;0.40;0.40;;;;;;;;;;5085823;28;20675;-61
2023/03/23 10:34:54;;;;;;;0.70;0.70;;;;;;;;;;5089396;28;20221;-61
2023/03/23 10:37:23;;;;;;;0.50;0.50;;;;;;;;;;5085048;28;20202;-61
2023/03/23 10:39:52;;;;;;;1.27;0.38;;;;;;;;;;5083089;28;20305;-61
2023/03/23 10:42:26;;;;;;;0.55;0.55;;;;;;;;;;5085009;28;20202;-61
2023/03/23 10:44:53;;;;;;;0.43;0.43;;;;;;;;;;5086301;28;20677;-61
2023/03/23 10:47:20;;;;;;;1.85;0.65;;;;;;;;;;5087236;28;20226;-61
2023/03/23 10:49:50;;;;;;;0.68;0.68;;;;;;;;;;5089767;28;20206;-61
2023/03/23 10:52:29;;;;;;;3.35;0.60;;;;;;;;;;5083558;28;20683;-60
2023/03/23 10:54:57;;;;;;;0.52;0.52;;;;;;;;;;5087741;28;20755;-60
2023/03/23 10:57:26;;;;;;;0.60;0.60;;;;;;;;;;5089280;28;20194;-61
2023/03/23 10:59:59;;;;;;;0.70;0.70;;;;;;;;;;5085605;28;20214;-62
2023/03/23 11:02:26;;;;;;;0.60;0.60;;;;;;;;;;5084491;28;20967;-61
2023/03/23 11:05:01;;;;;;;0.40;0.40;;;;;;;;;;5087226;28;20301;-61
2023/03/23 11:07:32;;;;;;;0.45;0.45;;;;;;;;;;5088240;28;20225;-61
2023/03/23 11:10:06;;;;;;;0.80;0.40;;;;;;;;;;5086028;28;20195;-61
2023/03/23 11:12:35;;;;;;;0.30;0.30;;;;;;;;;;5087002;28;20278;-61
2023/03/23 11:15:06;;;;;;;0.50;0.40;;;;;;;;;;5087774;28;20227;-61
2023/03/23 11:17:34;;;;;;;0.93;0.47;;;;;;;;;;5087737;28;20194;-61
2023/03/23 11:20:11;;;;;;;0.25;0.25;;;;;;;;;;5091095;28;20237;-60
2023/03/23 11:22:41;;;;;;;0.35;0.32;;;;;;;;;;5088248;28;20238;-61
2023/03/23 11:25:11;;;;;;;0.45;0.45;;;;;;;;;;5100224;28;20610;-60
2023/03/23 11:27:40;;;;;;;0.30;0.30;;;;;;;;;;5095995;28;20316;-61
2023/03/23 11:30:10;;;;;;;1.02;0.60;;;;;;;;;;5086870;28;20241;-61
2023/03/23 11:32:38;;;;;;;0.55;0.55;;;;;;;;;;5085349;28;20210;-61
2023/03/23 11:35:08;;;;;;;0.70;0.70;;;;;;;;;;5086540;28;20210;-61
2023/03/23 11:37:36;;;;;;;0.75;0.70;;;;;;;;;;5089220;28;20299;-60
2023/03/23 11:40:16;;;;;;;0.68;0.68;;;;;;;;;;5085450;28;20214;-60
2023/03/23 11:42:44;;;;;;;0.60;0.60;;;;;;;;;;5099589;28;20657;-60
2023/03/23 11:45:17;;;;;;;0.80;0.80;;;;;;;;;;5087524;28;20236;-60
2023/03/23 11:47:47;;;;;;;0.70;0.70;;;;;;;;;;5094156;28;20226;-60
2023/03/23 11:50:17;;;;;;;0.40;0.40;;;;;;;;;;5087858;28;20285;-62
2023/03/23 11:52:46;;;;;;;0.40;0.40;;;;;;;;;;5087639;28;20294;-61
2023/03/23 11:55:17;;;;;;;0.40;0.40;;;;;;;;;;5075015;28;20210;-60
2023/03/23 11:57:44;;;;;;;0.40;0.40;;;;;;;;;;5094517;28;20205;-66
2023/03/23 12:00:16;;;;;;;0.30;0.30;;;;;;;;;;5088451;28;20801;-66
2023/03/23 12:02:48;;;;;;;0.32;0.32;;;;;;;;;;5094613;28;20208;-61
2023/03/23 12:05:31;;;;;;;0.30;0.30;;;;;;;;;;5087919;28;20802;-61
2023/03/23 12:08:03;;;;;;;0.40;0.40;;;;;;;;;;5074413;28;20232;-62
2023/03/23 12:10:36;;;;;;;0.55;0.45;;;;;;;;;;5086077;28;20264;-61
2023/03/23 12:13:11;;;;;;;0.45;0.45;;;;;;;;;;5094064;28;20695;-61
2023/03/23 12:15:40;;;;;;;0.30;0.30;;;;;;;;;;5087838;28;20296;-61
2023/03/23 12:18:10;;;;;;;0.20;0.20;;;;;;;;;;5087267;28;20621;-62
2023/03/23 12:20:45;;;;;;;0.30;0.30;;;;;;;;;;5090347;28;20202;-61
2023/03/23 12:23:18;;;;;;;0.55;0.47;;;;;;;;;;5085212;28;20245;-61
2023/03/23 12:26:09;;;;;;;0.30;0.30;;;;;;;;;;5092862;28;20238;-61
2023/03/23 12:28:43;;;;;;;0.30;0.30;;;;;;;;;;5066708;28;20230;-61
2023/03/23 12:31:13;;;;;;;0.77;0.43;;;;;;;;;;5085123;28;20209;-61
2023/03/23 12:33:46;;;;;;;0.35;0.35;;;;;;;;;;5089120;28;20210;-61
2023/03/23 12:36:17;;;;;;;2.55;0.57;;;;;;;;;;5087149;28;20452;-61
2023/03/23 12:38:54;;;;;;;0.40;0.40;;;;;;;;;;5087256;28;20874;-61
2023/03/23 12:41:26;;;;;;;1.20;0.30;;;;;;;;;;5086782;28;20699;-61
2023/03/23 12:43:54;;;;;;;0.32;0.32;;;;;;;;;;5087381;28;20203;-61
2023/03/23 12:46:37;;;;;;;0.40;0.40;;;;;;;;;;5088268;28;20259;-61
2023/03/23 12:49:07;;;;;;;0.73;0.50;;;;;;;;;;5088636;28;20846;-61
2023/03/23 12:51:36;;;;;;;0.60;0.43;;;;;;;;;;5087196;28;20210;-61
2023/03/23 12:54:07;;;;;;;0.40;0.40;;;;;;;;;;5093242;28;20678;-61
2023/03/23 12:56:38;;;;;;;0.40;0.40;;;;;;;;;;5088840;28;20278;-61
2023/03/23 12:59:12;;;;;;;0.30;0.30;;;;;;;;;;5103640;28;20684;-61
2023/03/23 13:01:41;;;;;;;0.47;0.47;;;;;;;;;;5087020;28;20206;-61
2023/03/23 13:04:10;;;;;;;0.40;0.40;;;;;;;;;;5104687;28;20214;-61
2023/03/23 13:06:39;;;;;;;0.40;0.40;;;;;;;;;;5090500;28;20202;-61
2023/03/23 13:09:08;;;;;;;0.30;0.30;;;;;;;;;;5080768;28;20283;-61
2023/03/23 13:11:38;;;;;;;0.30;0.30;;;;;;;;;;5085558;28;20210;-61
2023/03/23 13:14:10;;;;;;;1.08;0.40;;;;;;;;;;5088933;28;20244;-63
2023/03/23 13:16:39;;;;;;;1.75;0.43;;;;;;;;;;5093178;28;20251;-62
2023/03/23 13:19:12;;;;;;;0.30;0.30;;;;;;;;;;5107092;28;20202;-60
2023/03/23 13:21:43;;;;;;;0.28;0.28;;;;;;;;;;5093976;28;20225;-61
2023/03/23 13:24:12;;;;;;;0.30;0.30;;;;;;;;;;5105118;28;20224;-61
2023/03/23 13:26:42;;;;;;;0.40;0.40;;;;;;;;;;5088669;28;20263;-62
2023/03/23 13:29:11;;;;;;;0.30;0.30;;;;;;;;;;5087342;28;20716;-62
2023/03/23 13:31:40;;;;;;;2.22;0.40;;;;;;;;;;5092158;28;20202;-61
2023/03/23 13:34:13;;;;;;;0.32;0.32;;;;;;;;;;5101493;28;20215;-61
2023/03/23 13:36:42;;;;;;;0.38;0.38;;;;;;;;;;5087328;28;20252;-61
2023/03/23 13:39:19;;;;;;;0.25;0.25;;;;;;;;;;5087813;28;20621;-61
2023/03/23 13:42:00;;;;;;;0.65;0.65;;;;;;;;;;5092310;28;20198;-61
2023/03/23 13:44:28;;;;;;;0.40;0.40;;;;;;;;;;5098020;28;20224;-61
2023/03/23 13:46:58;;;;;;;0.47;0.47;;;;;;;;;;5088264;28;20586;-61
2023/03/23 13:49:25;;;;;;;0.40;0.40;;;;;;;;;;5073157;28;20679;-62
2023/03/23 13:52:01;;;;;;;0.40;0.40;;;;;;;;;;5092045;28;20804;-62
2023/03/23 13:54:32;;;;;;;3.05;0.40;;;;;;;;;;5090776;28;20198;-61
2023/03/23 13:57:02;;;;;;;0.40;0.40;;;;;;;;;;5101960;28;20523;-61
2023/03/23 13:59:31;;;;;;;3.30;0.43;;;;;;;;;;5093823;28;20198;-61
2023/03/23 14:02:18;;;;;;;0.45;0.45;;;;;;;;;;5092963;28;20220;-60
2023/03/23 14:04:48;;;;;;;0.40;0.40;;;;;;;;;;5082877;28;20202;-61
2023/03/23 14:07:18;;;;;;;0.38;0.38;;;;;;;;;;5091124;28;20210;-60
2023/03/23 14:09:47;;;;;;;0.40;0.40;;;;;;;;;;5101312;28;20672;-62
2023/03/23 14:12:18;;;;;;;0.40;0.40;;;;;;;;;;5090202;28;20289;-61
2023/03/23 14:14:46;;;;;;;0.20;0.20;;;;;;;;;;5096179;28;20240;-62
2023/03/23 14:17:15;;;;;;;0.63;0.40;;;;;;;;;;5093455;28;20206;-61
2023/03/23 14:19:43;;;;;;;1.10;0.30;;;;;;;;;;5090170;28;20548;-60
2023/03/23 14:22:18;;;;;;;0.20;0.20;;;;;;;;;;5088757;28;20242;-60
2023/03/23 14:24:46;;;;;;;0.32;0.32;;;;;;;;;;5103003;28;20290;-61
2023/03/23 14:27:14;;;;;;;0.30;0.30;;;;;;;;;;5091250;28;20361;-62
2023/03/23 14:29:43;;;;;;;2.88;0.38;;;;;;;;;;5108434;28;20323;-61
2023/03/23 14:32:13;;;;;;;0.35;0.28;;;;;;;;;;5099880;28;20552;-61
2023/03/23 14:34:40;;;;;;;0.22;0.22;;;;;;;;;;5102393;28;20583;-61
2023/03/23 14:37:11;;;;;;;1.30;0.20;;;;;;;;;;5102596;28;20251;-61
2023/03/23 14:39:38;;;;;;;0.40;0.38;;;;;;;;;;5105541;28;20289;-62
2023/03/23 14:42:07;;;;;;;0.63;0.22;;;;;;;;;;5097237;28;20259;-61
2023/03/23 14:44:35;;;;;;;0.30;0.30;;;;;;;;;;5095483;28;20298;-62
2023/03/23 14:47:06;;;;;;;0.20;0.20;;;;;;;;;;5089287;28;20243;-62
2023/03/23 14:49:34;;;;;;;0.77;0.30;;;;;;;;;;5090651;28;20287;-63
2023/03/23 14:52:04;;;;;;;0.30;0.30;;;;;;;;;;5098860;28;20201;-63
2023/03/23 14:54:33;;;;;;;0.28;0.28;;;;;;;;;;5105635;28;20229;-62
2023/03/23 14:57:04;;;;;;;0.30;0.30;;;;;;;;;;5097669;28;20202;-61